createdAt,value
2022-10-05T00:01:41.184Z,98707.75
2022-10-05T00:04:15.382Z,98709.63
2022-10-05T00:06:43.828Z,98713.59
2022-10-05T00:09:19.146Z,98709.31
2022-10-05T00:11:45.696Z,98710.13
2022-10-05T00:14:32.031Z,98700.00
2022-10-05T00:16:58.723Z,98711.44
2022-10-05T00:19:33.561Z,98706.91
2022-10-05T00:22:08.618Z,98707.97
2022-10-05T00:24:34.942Z,98702.66
2022-10-05T00:27:02.046Z,98694.66
2022-10-05T00:29:28.494Z,98693.28
2022-10-05T00:31:54.988Z,98685.88
2022-10-05T00:34:21.537Z,98686.34
2022-10-05T00:36:48.471Z,98686.34
2022-10-05T00:39:15.550Z,98704.75
2022-10-05T00:42:03.257Z,98697.28
2022-10-05T00:44:41.833Z,98689.53
2022-10-05T00:47:20.215Z,98689.78
2022-10-05T00:50:08.135Z,98691.88
2022-10-05T00:53:01.921Z,98683.09
2022-10-05T00:55:43.581Z,98676.16
2022-10-05T00:58:42.687Z,98671.09
2022-10-05T01:01:17.397Z,98666.81
2022-10-05T01:04:05.780Z,98664.66
2022-10-05T01:07:26.600Z,98668.13
2022-10-05T01:10:25.118Z,98672.66
2022-10-05T01:13:19.205Z,98674.25
2022-10-05T01:15:49.852Z,98677.44
2022-10-05T01:18:29.903Z,98685.44
2022-10-05T01:21:03.408Z,98683.31
2022-10-05T01:23:53.654Z,98679.25
2022-10-05T01:26:38.282Z,98684.38
2022-10-05T01:29:23.739Z,98674.50
2022-10-05T01:32:05.056Z,98663.25
2022-10-05T01:34:59.286Z,98668.59
2022-10-05T01:37:50.204Z,98671.25
2022-10-05T01:40:34.381Z,98672.13
2022-10-05T01:43:06.787Z,98664.59
2022-10-05T01:45:55.034Z,98663.78
2022-10-05T01:48:36.382Z,98659.25
2022-10-05T01:51:15.287Z,98648.03
2022-10-05T01:53:57.906Z,98650.16
2022-10-05T01:56:37.576Z,98643.78
2022-10-05T01:59:16.598Z,98638.69
2022-10-05T02:02:03.364Z,98632.00
2022-10-05T02:07:32.722Z,98630.44
2022-10-05T02:10:00.966Z,98623.78
2022-10-05T02:12:29.442Z,98627.75
2022-10-05T02:14:58.691Z,98626.69
2022-10-05T02:17:33.589Z,98615.22
2022-10-05T02:20:01.884Z,98614.69
2022-10-05T02:22:32.729Z,98619.25
2022-10-05T02:25:10.819Z,98621.13
2022-10-05T02:27:39.796Z,98613.09
2022-10-05T02:30:10.418Z,98628.31
2022-10-05T02:32:41.433Z,98616.81
2022-10-05T02:35:13.804Z,98616.28
2022-10-05T02:37:58.827Z,98615.50
2022-10-05T02:40:49.628Z,98612.56
2022-10-05T02:43:38.902Z,98612.56
2022-10-05T02:46:05.611Z,98609.09
2022-10-05T02:49:06.255Z,98607.50
2022-10-05T02:51:35.603Z,98608.78
2022-10-05T02:54:11.346Z,98600.03
2022-10-05T02:56:44.294Z,98596.34
2022-10-05T02:59:31.173Z,98596.56
2022-10-05T03:02:21.519Z,98596.34
2022-10-05T03:05:15.521Z,98594.72
2022-10-05T03:07:49.615Z,98581.41
2022-10-05T03:10:23.615Z,98571.81
2022-10-05T03:12:55.076Z,98567.28
2022-10-05T03:15:33.352Z,98565.41
2022-10-05T03:18:30.883Z,98562.75
2022-10-05T03:21:12.032Z,98575.28
2022-10-05T03:23:46.372Z,98572.88
2022-10-05T03:26:37.380Z,98570.47
2022-10-05T03:29:12.162Z,98582.72
2022-10-05T03:32:04.278Z,98574.97
2022-10-05T03:34:37.898Z,98568.31
2022-10-05T03:37:37.579Z,98562.44
2022-10-05T03:40:50.781Z,98560.00
2022-10-05T03:43:32.208Z,98546.69
2022-10-05T03:46:37.632Z,98558.69
2022-10-05T03:49:22.380Z,98550.44
2022-10-05T03:51:51.335Z,98550.69
2022-10-05T03:54:24.848Z,98542.69
2022-10-05T03:56:58.344Z,98546.41
2022-10-05T03:59:33.708Z,98541.06
2022-10-05T04:02:07.386Z,98531.47
2022-10-05T04:04:36.494Z,98537.59
2022-10-05T04:07:02.980Z,98535.22
2022-10-05T04:09:37.196Z,98538.66
2022-10-05T04:12:16.963Z,98537.59
2022-10-05T04:14:46.179Z,98544.78
2022-10-05T04:17:15.016Z,98530.69
2022-10-05T04:19:57.051Z,98528.28
2022-10-05T04:22:28.126Z,98526.69
2022-10-05T04:25:14.522Z,98518.69
2022-10-05T04:27:49.068Z,98522.97
2022-10-05T04:30:19.341Z,98525.84
2022-10-05T04:32:54.476Z,98527.47
2022-10-05T04:35:33.396Z,98515.16
2022-10-05T04:38:25.212Z,98512.28
2022-10-05T04:41:07.857Z,98504.50
2022-10-05T04:43:52.812Z,98514.38
2022-10-05T04:46:43.819Z,98509.03
2022-10-05T04:49:40.869Z,98507.44
2022-10-05T04:52:16.848Z,98501.59
2022-10-05T04:55:08.983Z,98494.41
2022-10-05T04:57:47.688Z,98494.09
2022-10-05T05:00:26.907Z,98487.72
2022-10-05T05:03:45.968Z,98494.63
2022-10-05T05:06:35.143Z,98499.41
2022-10-05T05:09:12.916Z,98490.38
2022-10-05T05:11:59.614Z,98491.16
2022-10-05T05:14:26.798Z,98484.25
2022-10-05T05:17:13.235Z,98488.78
2022-10-05T05:20:37.198Z,98499.41
2022-10-05T05:23:19.072Z,98503.16
2022-10-05T05:25:51.923Z,98500.47
2022-10-05T05:29:05.458Z,98495.16
2022-10-05T05:31:40.485Z,98497.25
2022-10-05T05:34:06.834Z,98503.38
2022-10-05T05:37:10.067Z,98506.31
2022-10-05T05:40:08.883Z,98516.16
2022-10-05T05:42:39.764Z,98518.81
2022-10-05T05:45:15.558Z,98521.47
2022-10-05T05:47:42.099Z,98522.53
2022-10-05T05:50:24.435Z,98524.41
2022-10-05T05:52:55.310Z,98534.00
2022-10-05T05:55:30.614Z,98524.63
2022-10-05T05:58:20.294Z,98523.59
2022-10-05T06:00:51.043Z,98518.50
2022-10-05T06:03:40.064Z,98530.53
2022-10-05T06:06:09.850Z,98530.53
2022-10-05T06:08:47.613Z,98525.19
2022-10-05T06:11:21.741Z,98517.22
2022-10-05T06:13:48.232Z,98525.19
2022-10-05T06:16:46.357Z,98525.75
2022-10-05T06:19:20.475Z,98526.81
2022-10-05T06:22:07.212Z,98530.00
2022-10-05T06:24:48.304Z,98535.59
2022-10-05T06:27:25.829Z,98549.97
2022-10-05T06:30:06.623Z,98542.47
2022-10-05T06:32:43.074Z,98541.94
2022-10-05T06:35:19.529Z,98541.63
2022-10-05T06:38:10.881Z,98545.59
2022-10-05T06:40:43.927Z,98544.00
2022-10-05T06:43:35.335Z,98548.78
2022-10-05T06:46:24.626Z,98549.56
2022-10-05T06:49:19.138Z,98547.97
2022-10-05T06:51:56.503Z,98538.13
2022-10-05T06:54:45.734Z,98538.94
2022-10-05T06:57:24.434Z,98537.06
2022-10-05T07:00:05.365Z,98535.19
2022-10-05T07:02:39.125Z,98533.59
2022-10-05T07:05:39.738Z,98538.44
2022-10-05T07:08:10.529Z,98530.69
2022-10-05T07:10:46.575Z,98533.59
2022-10-05T07:13:38.728Z,98537.31
2022-10-05T07:16:45.505Z,98541.50
2022-10-05T07:19:36.706Z,98537.56
2022-10-05T07:22:25.516Z,98537.03
2022-10-05T07:25:05.373Z,98527.75
2022-10-05T07:27:39.770Z,98528.78
2022-10-05T07:30:16.599Z,98518.66
2022-10-05T07:33:01.728Z,98519.50
2022-10-05T07:36:09.840Z,98523.41
2022-10-05T07:38:38.931Z,98524.47
2022-10-05T07:41:12.038Z,98525.84
2022-10-05T07:44:01.639Z,98530.28
2022-10-05T07:46:38.479Z,98532.94
2022-10-05T07:49:35.559Z,98521.28
2022-10-05T07:52:05.099Z,98523.94
2022-10-05T07:54:56.455Z,98522.88
2022-10-05T07:57:47.939Z,98534.00
2022-10-05T08:00:23.802Z,98539.31
2022-10-05T08:03:06.439Z,98532.91
2022-10-05T08:05:34.633Z,98533.88
2022-10-05T08:08:57.113Z,98538.34
2022-10-05T08:11:56.474Z,98532.78
2022-10-05T08:14:33.661Z,98533.88
2022-10-05T08:17:02.726Z,98532.41
2022-10-05T08:19:46.800Z,98532.50
2022-10-05T08:22:18.405Z,98530.91
2022-10-05T08:25:01.899Z,98531.97
2022-10-05T08:27:58.990Z,98541.53
2022-10-05T08:30:25.523Z,98535.16
2022-10-05T08:33:09.912Z,98538.63
2022-10-05T08:35:40.492Z,98546.59
2022-10-05T08:38:17.226Z,98547.66
2022-10-05T08:41:32.044Z,98555.38
2022-10-05T08:44:16.972Z,98556.19
2022-10-05T08:47:28.601Z,98548.19
2022-10-05T08:50:25.165Z,98555.16
2022-10-05T08:53:03.428Z,98556.75
2022-10-05T08:55:37.739Z,98555.97
2022-10-05T08:58:32.926Z,98559.69
2022-10-05T09:01:05.147Z,98559.91
2022-10-05T09:03:54.006Z,98554.59
2022-10-05T09:06:50.995Z,98556.44
2022-10-05T09:09:32.384Z,98558.06
2022-10-05T09:12:10.981Z,98560.72
2022-10-05T09:14:45.158Z,98569.75
2022-10-05T09:17:28.318Z,98558.31
2022-10-05T09:20:33.761Z,98563.09
2022-10-05T09:23:04.895Z,98562.25
2022-10-05T09:25:42.408Z,98555.09
2022-10-05T09:28:20.589Z,98557.78
2022-10-05T09:30:56.316Z,98562.25
2022-10-05T09:33:29.724Z,98562.25
2022-10-05T09:36:38.459Z,98567.59
2022-10-05T09:39:17.628Z,98564.69
2022-10-05T09:41:56.532Z,98553.25
2022-10-05T09:44:58.742Z,98546.88
2022-10-05T09:47:53.055Z,98535.16
2022-10-05T09:50:37.897Z,98526.31
2022-10-05T09:53:35.097Z,98543.63
2022-10-05T09:56:21.313Z,98540.97
2022-10-05T09:59:14.102Z,98531.69
2022-10-05T10:01:54.380Z,98544.47
2022-10-05T10:04:28.643Z,98535.66
2022-10-05T10:07:02.317Z,98540.75
2022-10-05T10:10:13.240Z,98524.78
2022-10-05T10:13:16.907Z,98540.97
2022-10-05T10:16:09.123Z,98540.75
2022-10-05T10:18:41.263Z,98537.81
2022-10-05T10:21:30.017Z,98537.06
2022-10-05T10:24:15.195Z,98533.38
2022-10-05T10:27:10.573Z,98550.81
2022-10-05T10:29:43.179Z,98545.63
2022-10-05T10:32:30.247Z,98521.75
2022-10-05T10:35:05.599Z,98540.88
2022-10-05T10:38:12.403Z,98540.22
2022-10-05T10:40:50.933Z,98541.84
2022-10-05T10:43:32.645Z,98535.22
2022-10-05T10:46:11.216Z,98545.91
2022-10-05T10:48:40.599Z,98541.97
2022-10-05T10:51:39.440Z,98530.25
2022-10-05T10:54:41.301Z,98524.66
2022-10-05T10:57:33.993Z,98521.47
2022-10-05T11:00:17.756Z,98522.28
2022-10-05T11:03:09.880Z,98517.22
2022-10-05T11:06:14.059Z,98514.84
2022-10-05T11:08:50.651Z,98509.50
2022-10-05T11:11:19.859Z,98508.72
2022-10-05T11:14:02.514Z,98516.47
2022-10-05T11:16:54.006Z,98507.66
2022-10-05T11:20:02.404Z,98505.78
2022-10-05T11:22:39.999Z,98507.16
2022-10-05T11:25:27.995Z,98496.19
2022-10-05T11:27:54.447Z,98501.81
2022-10-05T11:30:45.220Z,98495.38
2022-10-05T11:33:29.195Z,98491.41
2022-10-05T11:36:14.002Z,98493.00
2022-10-05T11:38:57.021Z,98493.00
2022-10-05T11:41:59.453Z,98487.13
2022-10-05T11:44:44.664Z,98479.13
2022-10-05T11:47:27.328Z,98478.56
2022-10-05T11:50:12.569Z,98472.44
2022-10-05T11:52:57.055Z,98468.19
2022-10-05T11:55:31.007Z,98465.00
2022-10-05T11:57:58.288Z,98462.03
2022-10-05T12:00:33.258Z,98467.91
2022-10-05T12:03:34.892Z,98460.16
2022-10-05T12:06:21.918Z,98455.91
2022-10-05T12:09:26.076Z,98447.09
2022-10-05T12:12:22.328Z,98449.47
2022-10-05T12:15:28.247Z,98440.66
2022-10-05T12:18:39.573Z,98417.97
2022-10-05T12:21:17.582Z,98428.91
2022-10-05T12:23:56.043Z,98423.06
2022-10-05T12:26:22.378Z,98421.16
2022-10-05T12:28:57.626Z,98422.00
2022-10-05T12:31:54.430Z,98418.75
2022-10-05T12:34:45.868Z,98427.31
2022-10-05T12:37:32.327Z,98421.94
2022-10-05T12:40:13.071Z,98417.16
2022-10-05T12:43:01.394Z,98405.38
2022-10-05T12:45:43.444Z,98402.94
2022-10-05T12:48:19.540Z,98391.44
2022-10-05T12:50:54.970Z,98383.16
2022-10-05T12:53:24.732Z,98379.13
2022-10-05T12:56:09.794Z,98371.59
2022-10-05T12:58:55.624Z,98372.94
2022-10-05T13:01:54.304Z,98366.47
2022-10-05T13:04:39.269Z,98369.97
2022-10-05T13:07:20.885Z,98357.94
2022-10-05T13:10:18.158Z,98363.25
2022-10-05T13:12:47.898Z,98359.22
2022-10-05T13:15:14.223Z,98352.00
2022-10-05T13:17:50.625Z,98343.72
2022-10-05T13:20:31.574Z,98347.75
2022-10-05T13:23:06.989Z,98348.53
2022-10-05T13:25:35.722Z,98342.38
2022-10-05T13:28:02.146Z,98341.06
2022-10-05T13:30:29.173Z,98336.25
2022-10-05T13:33:18.781Z,98331.47
2022-10-05T13:36:07.687Z,98333.59
2022-10-05T13:38:51.727Z,98324.25
2022-10-05T13:41:41.056Z,98329.31
2022-10-05T13:44:10.477Z,98321.53
2022-10-05T13:46:36.948Z,98323.47
2022-10-05T13:49:21.985Z,98322.91
2022-10-05T13:52:22.765Z,98307.41
2022-10-05T13:55:23.681Z,98310.09
2022-10-05T13:58:03.356Z,98307.44
2022-10-05T14:00:29.831Z,98301.31
2022-10-05T14:02:57.212Z,98304.22
2022-10-05T14:05:27.575Z,98299.22
2022-10-05T14:07:58.530Z,98300.56
2022-10-05T14:10:36.522Z,98286.41
2022-10-05T14:13:12.739Z,98282.66
2022-10-05T14:15:42.301Z,98275.44
2022-10-05T14:18:25.776Z,98275.19
2022-10-05T14:21:02.489Z,98271.72
2022-10-05T14:23:29.056Z,98273.56
2022-10-05T14:25:55.884Z,98270.16
2022-10-05T14:28:32.954Z,98258.13
2022-10-05T14:31:11.172Z,98256.06
2022-10-05T14:33:38.215Z,98256.88
2022-10-05T14:36:19.469Z,98263.00
2022-10-05T14:38:53.451Z,98259.56
2022-10-05T14:41:20.606Z,98256.09
2022-10-05T14:44:11.136Z,98251.53
2022-10-05T14:46:39.384Z,98244.59
2022-10-05T14:49:22.074Z,98245.66
2022-10-05T14:51:51.570Z,98226.97
2022-10-05T14:54:33.293Z,98241.94
2022-10-05T14:57:14.889Z,98228.00
2022-10-05T15:00:00.041Z,98231.47
2022-10-05T15:02:38.779Z,98237.63
2022-10-05T15:05:12.077Z,98234.97
2022-10-05T15:07:43.932Z,98241.38
2022-10-05T15:10:34.884Z,98239.22
2022-10-05T15:13:16.419Z,98235.22
2022-10-05T15:15:56.663Z,98239.03
2022-10-05T15:19:02.359Z,98223.00
2022-10-05T15:21:28.689Z,98225.94
2022-10-05T15:24:01.067Z,98219.28
2022-10-05T15:26:46.480Z,98234.50
2022-10-05T15:29:31.710Z,98220.66
2022-10-05T15:32:34.192Z,98218.50
2022-10-05T15:35:09.575Z,98212.69
2022-10-05T15:37:42.052Z,98216.13
2022-10-05T15:40:23.665Z,98221.47
2022-10-05T15:42:52.687Z,98218.81
2022-10-05T15:45:23.494Z,98212.69
2022-10-05T15:47:49.873Z,98213.22
2022-10-05T15:50:28.373Z,98215.63
2022-10-05T15:53:18.333Z,98220.16
2022-10-05T15:56:10.810Z,98226.06
2022-10-05T15:58:56.923Z,98226.03
2022-10-05T16:01:32.519Z,98225.00
2022-10-05T16:04:12.498Z,98222.31
2022-10-05T16:07:02.464Z,98226.03
2022-10-05T16:09:56.717Z,98222.59
2022-10-05T16:12:29.120Z,98233.78
2022-10-05T16:15:28.417Z,98228.72
2022-10-05T16:18:45.682Z,98231.97
2022-10-05T16:21:21.230Z,98231.66
2022-10-05T16:23:57.695Z,98238.88
2022-10-05T16:29:16.881Z,98252.28
2022-10-05T16:32:14.422Z,98256.00
2022-10-05T16:35:02.437Z,98253.59
2022-10-05T16:37:59.872Z,98255.22
2022-10-05T16:40:32.194Z,98266.69
2022-10-05T16:43:17.599Z,98269.06
2022-10-05T16:46:12.037Z,98268.00
2022-10-05T16:49:04.083Z,98278.44
2022-10-05T16:51:47.454Z,98280.53
2022-10-05T16:54:22.688Z,98280.56
2022-10-05T16:56:55.368Z,98292.84
2022-10-05T16:59:24.787Z,98302.72
2022-10-05T17:02:01.380Z,98309.91
2022-10-05T17:04:57.932Z,98313.13
2022-10-05T17:08:15.607Z,98321.13
2022-10-05T17:11:17.156Z,98328.06
2022-10-05T17:13:55.953Z,98333.91
2022-10-05T17:16:41.728Z,98341.13
2022-10-05T17:19:15.222Z,98347.81
2022-10-05T17:22:00.909Z,98352.06
2022-10-05T17:24:41.447Z,98363.81
2022-10-05T17:27:31.601Z,98367.00
2022-10-05T17:30:17.954Z,98367.81
2022-10-05T17:32:57.571Z,98372.63
2022-10-05T17:35:43.015Z,98375.53
2022-10-05T17:38:17.173Z,98380.06
2022-10-05T17:41:06.146Z,98392.63
2022-10-05T17:43:33.286Z,98390.75
2022-10-05T17:46:07.052Z,98395.81
2022-10-05T17:48:49.297Z,98393.13
2022-10-05T17:51:47.070Z,98401.41
2022-10-05T17:54:38.024Z,98395.81
2022-10-05T17:57:04.562Z,98394.75
2022-10-05T17:59:46.159Z,98399.03
2022-10-05T18:02:40.730Z,98395.00
2022-10-05T18:05:12.498Z,98396.88
2022-10-05T18:07:39.748Z,98394.22
2022-10-05T18:10:12.173Z,98393.41
2022-10-05T18:13:09.995Z,98389.16
2022-10-05T18:15:45.116Z,98393.94
2022-10-05T18:18:32.624Z,98397.44
2022-10-05T18:21:16.446Z,98399.03
2022-10-05T18:24:00.989Z,98407.53
2022-10-05T18:26:36.224Z,98408.06
2022-10-05T18:29:36.562Z,98416.03
2022-10-05T18:32:07.205Z,98412.84
2022-10-05T18:34:36.779Z,98412.03
2022-10-05T18:37:25.759Z,98417.91
2022-10-05T18:40:16.036Z,98422.72
2022-10-05T18:43:27.123Z,98421.91
2022-10-05T18:46:22.683Z,98422.94
2022-10-05T18:49:10.638Z,98425.63
2022-10-05T18:52:06.571Z,98428.56
2022-10-05T18:54:43.799Z,98430.72
2022-10-05T18:57:42.796Z,98435.25
2022-10-05T19:00:17.686Z,98441.63
2022-10-05T19:03:00.200Z,98433.09
2022-10-05T19:05:48.713Z,98428.84
2022-10-05T19:08:33.808Z,98434.97
2022-10-05T19:11:23.037Z,98448.03
2022-10-05T19:13:52.548Z,98445.34
2022-10-05T19:16:33.915Z,98459.47
2022-10-05T19:19:08.735Z,98449.63
2022-10-05T19:21:39.364Z,98464.56
2022-10-05T19:24:24.568Z,98465.38
2022-10-05T19:27:22.542Z,98462.16
2022-10-05T19:30:00.429Z,98471.22
2022-10-05T19:32:36.030Z,98478.16
2022-10-05T19:35:08.523Z,98480.03
2022-10-05T19:37:47.508Z,98475.75
2022-10-05T19:40:30.595Z,98484.84
2022-10-05T19:43:06.991Z,98488.56
2022-10-05T19:45:39.209Z,98488.56
2022-10-05T19:48:27.602Z,98490.41
2022-10-05T19:50:54.607Z,98499.22
2022-10-05T19:53:30.261Z,98487.47
2022-10-05T19:55:56.767Z,98491.72
2022-10-05T19:58:25.795Z,98490.94
2022-10-05T20:00:54.273Z,98491.19
2022-10-05T20:03:23.546Z,98491.75
2022-10-05T20:05:54.538Z,98493.34
2022-10-05T20:08:21.635Z,98495.50
2022-10-05T20:11:27.192Z,98495.97
2022-10-05T20:13:53.573Z,98484.81
2022-10-05T20:16:45.692Z,98489.06
2022-10-05T20:19:54.723Z,98482.16
2022-10-05T20:22:27.906Z,98500.03
2022-10-05T20:24:56.237Z,98502.41
2022-10-05T20:27:49.666Z,98516.53
2022-10-05T20:30:20.876Z,98521.88
2022-10-05T20:32:50.703Z,98522.69
2022-10-05T20:35:18.588Z,98519.22
2022-10-05T20:37:45.079Z,98531.47
2022-10-05T20:40:11.627Z,98539.47
2022-10-05T20:42:38.151Z,98534.13
2022-10-05T20:45:06.244Z,98537.06
2022-10-05T20:47:33.708Z,98533.06
2022-10-05T20:50:01.071Z,98537.59
2022-10-05T20:52:27.573Z,98541.84
2022-10-05T20:54:58.746Z,98540.25
2022-10-05T20:57:25.370Z,98539.47
2022-10-05T20:59:51.831Z,98543.19
2022-10-05T21:02:21.376Z,98542.38
2022-10-05T21:04:47.886Z,98545.06
2022-10-05T21:07:18.099Z,98538.13
2022-10-05T21:09:46.439Z,98544.25
2022-10-05T21:12:13.246Z,98539.16
2022-10-05T21:14:40.519Z,98530.63
2022-10-05T21:17:06.997Z,98536.75
2022-10-05T21:19:40.299Z,98541.31
2022-10-05T21:22:07.693Z,98540.50
2022-10-05T21:24:35.871Z,98535.16
2022-10-05T21:27:02.341Z,98537.03
2022-10-05T21:29:28.947Z,98531.69
2022-10-05T21:31:55.991Z,98529.03
2022-10-05T21:34:22.580Z,98518.38
2022-10-05T21:36:49.145Z,98520.47
2022-10-05T21:39:15.624Z,98523.16
2022-10-05T21:41:42.107Z,98519.41
2022-10-05T21:44:08.554Z,98524.75
2022-10-05T21:46:35.551Z,98526.63
2022-10-05T21:49:01.998Z,98528.47
2022-10-05T21:51:28.495Z,98524.75
2022-10-05T21:54:01.620Z,98527.41
2022-10-05T21:56:30.307Z,98514.09
2022-10-05T21:58:56.820Z,98512.47
2022-10-05T22:01:23.377Z,98527.69
2022-10-05T22:03:49.945Z,98532.22
2022-10-05T22:06:16.672Z,98534.09
2022-10-05T22:08:43.142Z,98527.69
2022-10-05T22:11:11.406Z,98524.22
2022-10-05T22:13:48.754Z,98539.41
2022-10-05T22:16:15.716Z,98529.81
2022-10-05T22:18:42.341Z,98530.59
2022-10-05T22:21:11.214Z,98533.28
2022-10-05T22:23:38.936Z,98545.81
2022-10-05T22:26:05.554Z,98531.91
2022-10-05T22:28:32.784Z,98537.53
2022-10-05T22:31:00.098Z,98528.72
2022-10-05T22:33:27.109Z,98529.53
2022-10-05T22:35:53.591Z,98545.22
2022-10-05T22:38:20.151Z,98546.81
2022-10-05T22:40:46.685Z,98538.03
2022-10-05T22:43:13.134Z,98548.69
2022-10-05T22:45:39.668Z,98548.16
2022-10-05T22:48:06.150Z,98550.00
2022-10-05T22:50:32.645Z,98559.31
2022-10-05T22:52:59.112Z,98553.19
2022-10-05T22:55:25.644Z,98551.09
2022-10-05T22:57:52.119Z,98563.59
2022-10-05T23:00:18.682Z,98589.22
2022-10-05T23:02:45.391Z,98583.84
2022-10-05T23:05:13.338Z,98576.91
2022-10-05T23:07:40.842Z,98579.84
2022-10-05T23:10:08.136Z,98585.97
2022-10-05T23:12:34.680Z,98587.00
2022-10-05T23:15:01.544Z,98592.84
2022-10-05T23:17:28.428Z,98586.63
2022-10-05T23:19:54.889Z,98588.25
2022-10-05T23:22:21.581Z,98602.19
2022-10-05T23:24:48.028Z,98613.91
2022-10-05T23:27:14.497Z,98617.91
2022-10-05T23:29:40.946Z,98616.31
2022-10-05T23:32:07.998Z,98633.81
2022-10-05T23:34:34.496Z,98650.91
2022-10-05T23:37:00.953Z,98651.97
2022-10-05T23:39:27.416Z,98645.59
2022-10-05T23:41:53.900Z,98658.09
2022-10-05T23:44:20.508Z,98649.25
2022-10-05T23:46:47.029Z,98661.56
2022-10-05T23:49:14.734Z,98671.13
2022-10-05T23:51:41.256Z,98687.66
2022-10-05T23:54:07.742Z,98680.72
2022-10-05T23:56:34.296Z,98674.34
2022-10-05T23:59:00.748Z,98678.81
